Time;durP1;ratioP1;P1;durP2;ratioP2;P2;SDS_P1;SDS_P2;PMS_P1;PMS_P2;Temp;Humidity;BMP_temperature;BMP_pressure;BME280_temperature;BME280_humidity;BME280_pressure;Samples;Min_cycle;Max_cycle;Signal;HPM_P1;HPM_P2
2021/03/03 00:02:23;;;;;;;92.97;22.30;;;3.40;74.00;;;2.44;58.08;96298.34;5041485;28;20258;-82
2021/03/03 00:04:49;;;;;;;111.00;21.95;;;3.40;74.20;;;2.45;57.87;96297.41;5074665;28;20191;-83
2021/03/03 00:07:16;;;;;;;87.22;19.63;;;3.40;74.30;;;2.53;57.82;96298.53;5058431;28;20235;-82
2021/03/03 00:09:44;;;;;;;80.78;20.42;;;3.40;74.40;;;2.56;58.09;96290.56;5041757;28;20195;-84
2021/03/03 00:12:10;;;;;;;89.63;19.08;;;3.50;74.60;;;2.61;58.13;96292.81;5058575;28;20634;-83
2021/03/03 00:14:37;;;;;;;66.65;17.90;;;3.50;74.60;;;2.65;57.80;96285.66;5057953;28;20203;-83
2021/03/03 00:17:05;;;;;;;79.30;18.00;;;3.50;74.60;;;2.65;57.51;96278.72;5058674;28;20223;-82
2021/03/03 00:19:32;;;;;;;81.93;18.92;;;3.50;74.60;;;2.70;57.72;96281.00;5058435;28;20203;-84
2021/03/03 00:22:00;;;;;;;59.25;17.70;;;3.60;74.70;;;2.68;57.91;96281.06;5078220;28;20233;-83
2021/03/03 00:24:26;;;;;;;69.18;18.48;;;3.60;74.70;;;2.70;58.20;96283.59;5078229;28;20281;-84
2021/03/03 00:26:53;;;;;;;73.32;17.10;;;3.60;74.60;;;2.72;57.98;96287.72;5061569;28;20685;-83
2021/03/03 00:29:20;;;;;;;65.00;15.95;;;3.60;74.50;;;2.72;57.73;96289.47;5077983;28;20567;-83
2021/03/03 00:31:47;;;;;;;70.72;17.13;;;3.60;74.50;;;2.70;57.77;96286.97;5094815;28;20248;-83
2021/03/03 00:34:14;;;;;;;56.00;16.95;;;3.60;74.60;;;2.71;57.82;96290.38;5077526;28;20228;-82
2021/03/03 00:36:41;;;;;;;55.53;18.10;;;3.60;74.60;;;2.72;58.00;96281.69;5061444;28;20691;-84
2021/03/03 00:39:07;;;;;;;64.75;18.17;;;3.60;74.60;;;2.68;57.70;96275.91;5077804;28;20285;-84
2021/03/03 00:41:34;;;;;;;50.90;18.15;;;3.70;74.60;;;2.72;58.02;96279.94;5077914;28;20237;-83
2021/03/03 00:44:01;;;;;;;72.93;16.95;;;3.60;74.50;;;2.74;58.04;96276.41;5094724;28;20205;-83
2021/03/03 00:46:28;;;;;;;121.65;17.80;;;3.60;74.60;;;2.76;57.93;96274.53;5077375;28;20214;-83
2021/03/03 00:48:55;;;;;;;134.55;16.75;;;3.60;74.70;;;2.79;58.04;96274.31;5077531;28;20240;-84
2021/03/03 00:51:22;;;;;;;143.70;19.15;;;3.60;74.90;;;2.81;58.19;96265.50;5077702;28;20218;-82
2021/03/03 00:53:50;;;;;;;107.28;16.02;;;3.70;75.00;;;2.83;58.10;96267.97;5061720;28;20195;-83
2021/03/03 00:56:18;;;;;;;91.32;15.68;;;3.70;75.00;;;2.85;57.80;96266.91;5061344;28;20234;-83
2021/03/03 00:58:46;;;;;;;92.53;17.42;;;3.70;75.00;;;2.88;57.90;96261.53;5077586;28;20198;-83
2021/03/03 01:01:13;;;;;;;89.35;15.68;;;3.70;75.00;;;2.88;57.89;96266.72;5061087;28;20281;-83
2021/03/03 01:03:42;;;;;;;77.65;16.33;;;3.70;75.00;;;2.87;57.86;96256.47;5077463;28;20203;-82
2021/03/03 01:06:29;;;;;;;48.08;14.77;;;3.70;74.90;;;2.78;58.41;96252.75;5066552;28;20240;-82
2021/03/03 01:08:56;;;;;;;66.28;15.30;;;3.70;74.80;;;2.79;58.08;96257.00;5060761;28;20195;-83
2021/03/03 01:11:23;;;;;;;64.57;16.08;;;3.70;74.70;;;2.72;57.98;96251.44;5093728;28;20230;-83
2021/03/03 01:13:57;;;;;;;50.63;16.42;;;3.70;74.70;;;2.69;58.22;96250.84;5062474;28;20208;-83
2021/03/03 01:16:26;;;;;;;32.08;15.93;;;3.70;74.60;;;2.66;58.55;96258.81;5061013;28;20676;-83
2021/03/03 01:18:59;;;;;;;31.02;17.60;;;3.70;74.60;;;2.62;58.35;96259.97;5081106;28;20299;-83
2021/03/03 01:21:26;;;;;;;29.80;16.20;;;3.60;74.40;;;2.56;58.43;96248.28;5040450;28;20285;-84
2021/03/03 01:23:53;;;;;;;29.58;16.23;;;3.60;74.50;;;2.54;58.21;96252.75;5040300;28;20245;-84
2021/03/03 01:26:19;;;;;;;33.17;16.08;;;3.60;74.50;;;2.46;58.42;96240.34;5056968;28;20231;-84
2021/03/03 01:28:46;;;;;;;42.92;15.32;;;3.50;74.50;;;2.49;58.14;96245.31;5056536;28;20283;-83
2021/03/03 01:31:13;;;;;;;49.38;15.98;;;3.50;74.60;;;2.45;58.39;96238.69;5056696;28;20237;-84
2021/03/03 01:33:40;;;;;;;48.13;15.90;;;3.50;74.60;;;2.45;58.34;96241.25;5040186;28;20250;-83
2021/03/03 01:36:07;;;;;;;62.85;14.95;;;3.50;74.70;;;2.44;58.25;96233.63;5056368;28;20207;-84
2021/03/03 01:38:34;;;;;;;42.78;15.90;;;3.50;74.80;;;2.47;58.66;96236.81;5056938;28;20654;-82
2021/03/03 01:41:01;;;;;;;49.33;17.15;;;3.40;74.80;;;2.47;58.30;96239.41;5056582;28;20219;-83
2021/03/03 01:43:32;;;;;;;56.80;16.27;;;3.40;74.80;;;2.49;58.42;96232.38;5040504;28;20195;-84
2021/03/03 01:45:59;;;;;;;68.25;16.20;;;3.40;75.10;;;2.51;58.20;96240.00;5040034;28;20219;-83
2021/03/03 01:48:26;;;;;;;54.33;15.98;;;3.50;74.80;;;2.50;58.41;96231.44;5060743;28;20195;-83
2021/03/03 01:50:53;;;;;;;90.13;15.27;;;3.40;74.80;;;2.53;58.44;96223.44;5056311;28;20223;-84
2021/03/03 01:53:20;;;;;;;74.13;15.18;;;3.40;75.00;;;2.49;58.03;96228.94;5073339;28;20195;-83
2021/03/03 01:55:47;;;;;;;84.35;15.70;;;3.50;75.10;;;2.59;58.42;96231.69;5073043;28;20767;-83
2021/03/03 01:58:13;;;;;;;68.32;14.73;;;3.50;75.20;;;2.64;58.33;96229.63;5056052;28;20196;-83
2021/03/03 02:00:40;;;;;;;63.75;14.80;;;3.50;75.30;;;2.67;58.60;96231.97;5072404;28;20211;-83
2021/03/03 02:03:08;;;;;;;71.60;15.40;;;3.50;75.30;;;2.68;58.46;96234.44;5056124;28;20601;-84
2021/03/03 02:05:35;;;;;;;62.65;16.85;;;3.50;75.30;;;2.64;58.51;96219.25;5072369;28;20225;-83
2021/03/03 02:08:19;;;;;;;91.40;17.40;;;3.50;75.20;;;2.71;58.52;96231.66;5072883;28;20195;-83
2021/03/03 02:11:10;;;;;;;48.35;16.02;;;3.60;75.80;;;2.70;58.22;96229.19;5056205;28;20290;-83
2021/03/03 02:13:44;;;;;;;41.75;16.08;;;3.60;75.70;;;2.69;58.52;96227.53;5089476;28;20215;-83
2021/03/03 02:16:13;;;;;;;68.47;16.73;;;3.60;76.10;;;2.64;58.39;96222.66;5088785;28;20703;-83
2021/03/03 02:18:42;;;;;;;69.93;17.48;;;3.60;75.20;;;2.67;58.30;96224.19;5075471;28;20203;-83
2021/03/03 02:21:13;;;;;;;57.95;17.77;;;3.60;75.20;;;2.62;58.25;96221.94;5092920;28;20309;-83
2021/03/03 02:24:01;;;;;;;48.35;16.38;;;3.60;75.10;;;2.64;58.19;96230.44;5059823;28;20195;-82
2021/03/03 02:26:35;;;;;;;42.75;16.42;;;3.60;75.80;;;2.64;58.43;96232.22;5075877;28;20215;-82
2021/03/03 02:29:05;;;;;;;47.60;17.70;;;3.60;75.10;;;2.55;58.38;96213.78;5076619;28;20191;-83
2021/03/03 02:31:42;;;;;;;42.50;18.30;;;3.60;75.20;;;2.60;58.22;96223.84;5076486;28;20230;-83
2021/03/03 02:34:14;;;;;;;63.80;21.50;;;3.50;75.10;;;2.58;58.57;96219.69;5058835;28;20195;-82
2021/03/03 02:36:43;;;;;;;60.83;21.25;;;3.50;75.10;;;2.60;58.50;96215.22;5075903;28;20206;-83
2021/03/03 02:39:11;;;;;;;66.10;22.13;;;3.50;75.20;;;2.60;58.36;96220.41;5059140;28;20226;-84
2021/03/03 02:41:38;;;;;;;84.22;24.25;;;3.50;75.10;;;2.62;58.72;96223.72;5075556;28;20243;-83
2021/03/03 02:44:06;;;;;;;65.68;25.70;;;3.50;75.20;;;2.62;58.93;96215.94;5074291;28;20191;-83
2021/03/03 02:46:34;;;;;;;56.00;26.35;;;3.50;75.30;;;2.65;59.01;96218.28;5075615;28;20223;-83
2021/03/03 02:49:03;;;;;;;51.53;25.95;;;3.60;75.40;;;2.66;58.85;96225.13;5067759;28;20202;-82
2021/03/03 02:51:30;;;;;;;44.42;23.55;;;3.60;75.50;;;2.65;58.90;96224.31;5075431;28;20719;-83
2021/03/03 02:53:57;;;;;;;46.47;22.48;;;3.60;75.40;;;2.63;58.66;96222.78;5071938;28;20198;-84
2021/03/03 02:56:25;;;;;;;40.55;21.38;;;3.50;75.20;;;2.55;58.83;96208.63;5055433;28;20313;-83
2021/03/03 02:58:52;;;;;;;42.28;22.73;;;3.60;75.20;;;2.55;58.50;96216.38;5055439;28;20195;-83
2021/03/03 03:01:21;;;;;;;43.63;22.23;;;3.50;75.90;;;2.53;58.83;96215.66;5055596;28;20226;-82
2021/03/03 03:04:01;;;;;;;47.90;23.33;;;3.50;75.20;;;2.50;58.64;96210.72;5038473;28;20204;-84
2021/03/03 03:06:33;;;;;;;42.55;22.25;;;3.50;75.70;;;2.48;58.59;96207.41;5055120;28;20223;-84
2021/03/03 03:09:06;;;;;;;42.88;21.63;;;3.50;75.20;;;2.44;58.69;96203.38;5055532;28;20191;-83
2021/03/03 03:11:36;;;;;;;40.88;21.63;;;3.50;75.30;;;2.42;58.49;96207.84;5072035;28;20247;-84
2021/03/03 03:14:09;;;;;;;39.35;20.17;;;3.40;75.00;;;2.35;58.47;96189.31;5038488;28;20238;-83
2021/03/03 03:16:39;;;;;;;36.80;20.10;;;3.50;75.20;;;2.27;58.51;96189.03;5055188;28;20219;-83
2021/03/03 03:19:12;;;;;;;38.70;19.65;;;3.40;74.90;;;2.28;58.35;96198.44;5045130;28;20234;-83
2021/03/03 03:21:45;;;;;;;42.13;19.60;;;3.40;75.00;;;2.16;58.55;96184.63;5038721;28;20600;-83
2021/03/03 03:24:16;;;;;;;37.42;19.83;;;3.30;75.00;;;2.19;58.90;96192.16;5038707;28;20196;-83
2021/03/03 03:26:44;;;;;;;36.20;20.02;;;3.30;74.80;;;2.15;58.78;96184.72;5038736;28;20731;-84
2021/03/03 03:29:11;;;;;;;39.13;21.45;;;3.30;74.90;;;2.15;58.84;96190.72;5058767;28;20203;-82
2021/03/03 03:31:38;;;;;;;42.13;21.25;;;3.30;75.00;;;2.13;58.64;96190.00;5059104;28;20219;-84
2021/03/03 03:34:08;;;;;;;48.45;21.98;;;3.20;74.90;;;2.12;58.94;96187.53;5059036;28;20196;-83
2021/03/03 03:36:37;;;;;;;47.67;20.13;;;3.20;75.00;;;2.11;58.77;96185.88;5059364;28;20226;-83
2021/03/03 03:39:07;;;;;;;65.93;22.25;;;3.10;75.00;;;2.07;58.76;96182.66;5042737;28;20272;-83
2021/03/03 03:41:35;;;;;;;107.80;23.35;;;3.10;75.10;;;2.09;58.96;96183.41;5046272;28;20309;-82
2021/03/03 03:44:05;;;;;;;74.75;22.52;;;3.10;75.00;;;2.08;58.98;96192.91;5055736;28;20249;-82
2021/03/03 03:46:33;;;;;;;113.82;25.50;;;3.10;75.20;;;2.07;59.31;96193.03;5064207;28;20238;-82
2021/03/03 03:49:01;;;;;;;93.93;23.40;;;3.10;75.20;;;2.08;59.29;96194.69;5054697;28;20217;-83
2021/03/03 03:51:28;;;;;;;95.18;22.27;;;3.10;75.30;;;2.06;59.46;96186.19;5063075;28;20273;-82
2021/03/03 03:53:55;;;;;;;107.20;22.80;;;3.10;75.40;;;2.11;58.94;96189.28;5068416;28;20706;-82
2021/03/03 03:56:21;;;;;;;108.97;23.00;;;3.10;75.40;;;2.13;59.34;96192.59;5061982;28;20727;-82
2021/03/03 03:58:48;;;;;;;117.07;22.10;;;3.10;75.50;;;2.18;58.91;96190.50;5075130;28;20195;-83
2021/03/03 04:01:15;;;;;;;97.88;22.73;;;3.10;75.60;;;2.21;59.21;96181.69;5057203;28;20222;-82
2021/03/03 04:03:42;;;;;;;106.45;22.15;;;3.10;76.50;;;2.26;58.79;96186.53;5066994;28;20188;-82
2021/03/03 04:06:09;;;;;;;91.55;21.70;;;3.10;75.70;;;2.28;59.15;96182.91;5049083;28;20322;-82
2021/03/03 04:08:36;;;;;;;107.05;22.02;;;3.20;75.80;;;2.33;58.89;96187.75;5069924;28;20239;-82
2021/03/03 04:11:03;;;;;;;115.63;21.73;;;3.10;75.80;;;2.29;59.02;96178.56;5073719;28;20219;-83
2021/03/03 04:13:30;;;;;;;109.38;20.17;;;3.20;75.80;;;2.37;59.07;96184.84;5040113;28;20769;-83
2021/03/03 04:15:57;;;;;;;81.97;20.15;;;3.20;75.80;;;2.36;59.05;96179.78;5056782;28;20247;-82
2021/03/03 04:18:24;;;;;;;63.10;18.50;;;3.20;75.70;;;2.35;59.17;96178.94;5063805;28;20202;-82
2021/03/03 04:20:51;;;;;;;53.45;18.67;;;3.30;75.70;;;2.33;58.95;96177.41;5072123;28;20222;-83
2021/03/03 04:23:18;;;;;;;58.38;17.77;;;3.30;75.60;;;2.37;58.44;96181.44;5059392;28;20298;-83
2021/03/03 04:25:44;;;;;;;59.72;18.73;;;3.30;75.60;;;2.35;58.84;96191.91;5059471;28;20218;-82
2021/03/03 04:28:12;;;;;;;78.43;18.80;;;3.30;75.40;;;2.31;58.58;96184.47;5076847;28;20199;-82
2021/03/03 04:30:38;;;;;;;84.47;18.98;;;3.30;75.40;;;2.29;58.76;96181.97;5077987;28;20663;-82
2021/03/03 04:33:09;;;;;;;49.78;18.80;;;3.30;75.30;;;2.21;58.87;96172.19;5062136;28;20290;-82
2021/03/03 04:35:36;;;;;;;84.95;17.98;;;3.20;75.30;;;2.17;58.74;96175.09;5058181;28;20218;-82
2021/03/03 04:38:04;;;;;;;73.47;16.55;;;3.20;75.20;;;2.16;59.14;96171.69;5076107;28;20561;-83
2021/03/03 04:40:31;;;;;;;63.38;16.55;;;3.20;75.20;;;2.11;58.88;96165.16;5060235;28;20719;-82
2021/03/03 04:42:58;;;;;;;60.50;16.40;;;3.10;75.10;;;2.04;58.74;96167.38;5073854;28;20705;-83
2021/03/03 04:45:24;;;;;;;47.03;15.85;;;3.10;75.00;;;2.04;59.02;96167.38;5057750;28;20213;-83
2021/03/03 04:47:54;;;;;;;46.20;15.48;;;3.10;75.10;;;2.00;59.00;96161.59;5064678;28;20560;-82
2021/03/03 04:50:21;;;;;;;61.08;14.80;;;3.00;75.00;;;1.97;59.11;96163.56;5052895;28;20198;-82
2021/03/03 04:52:48;;;;;;;76.55;15.65;;;3.00;75.10;;;1.96;58.96;96165.31;5071407;28;20230;-82
2021/03/03 04:55:15;;;;;;;103.88;16.88;;;2.90;75.00;;;1.95;58.96;96162.84;5051999;28;20207;-82
2021/03/03 04:57:42;;;;;;;51.53;15.25;;;2.90;75.20;;;1.89;58.98;96156.31;5056533;28;20194;-82
2021/03/03 05:00:10;;;;;;;61.53;16.38;;;2.90;75.20;;;1.91;58.89;96165.63;5071934;28;20205;-81
2021/03/03 05:02:37;;;;;;;80.53;17.52;;;2.90;75.20;;;1.88;59.56;96154.66;5057021;28;20672;-81
2021/03/03 05:05:05;;;;;;;82.45;22.42;;;2.90;75.30;;;1.92;59.59;96156.94;5067988;28;20188;-81
2021/03/03 05:07:31;;;;;;;67.57;27.17;;;2.90;75.40;;;1.92;59.40;96144.00;5076148;28;20202;-82
2021/03/03 05:09:58;;;;;;;45.45;21.45;;;2.90;75.40;;;1.94;59.04;96156.81;5056289;28;20203;-82
2021/03/03 05:12:25;;;;;;;35.60;20.05;;;2.90;75.40;;;1.94;59.57;96150.81;5071366;28;20211;-82
2021/03/03 05:14:51;;;;;;;34.03;18.70;;;2.90;75.50;;;1.92;59.24;96143.19;5072653;28;20199;-82
2021/03/03 05:17:18;;;;;;;41.95;19.23;;;2.80;75.40;;;1.95;59.11;96153.28;5043269;28;20249;-82
2021/03/03 05:19:46;;;;;;;54.67;18.02;;;2.90;75.50;;;1.95;59.19;96160.25;5072133;28;20449;-82
2021/03/03 05:22:13;;;;;;;54.45;19.25;;;2.90;75.50;;;1.95;59.40;96155.06;5092552;28;20275;-82
2021/03/03 05:24:40;;;;;;;68.93;20.67;;;2.90;75.60;;;1.97;59.25;96155.78;5073878;28;20203;-83
2021/03/03 05:27:07;;;;;;;84.78;28.60;;;3.00;75.80;;;1.98;59.12;96154.84;5076367;28;20210;-82
2021/03/03 05:29:33;;;;;;;71.28;27.27;;;2.90;75.70;;;1.99;59.55;96156.50;5075258;28;20676;-82
2021/03/03 05:32:00;;;;;;;67.25;25.75;;;2.90;75.70;;;2.02;59.14;96172.63;5076982;28;20211;-82
2021/03/03 05:34:27;;;;;;;66.43;31.02;;;3.00;75.80;;;2.02;59.08;96164.88;5058884;28;20199;-83
2021/03/03 05:36:58;;;;;;;61.00;24.52;;;2.90;75.70;;;2.01;58.82;96162.41;5057171;28;20238;-83
2021/03/03 05:39:25;;;;;;;67.03;22.85;;;2.90;75.80;;;2.04;59.16;96162.19;5071830;28;20194;-83
2021/03/03 05:41:52;;;;;;;51.58;23.30;;;2.90;75.80;;;2.04;59.21;96157.03;5047644;28;20652;-82
2021/03/03 05:44:20;;;;;;;46.47;21.17;;;2.90;75.80;;;2.06;59.40;96160.31;5056145;28;20237;-83
2021/03/03 05:46:47;;;;;;;54.40;19.25;;;2.90;75.70;;;2.09;59.27;96157.53;5073374;28;20263;-82
2021/03/03 05:49:16;;;;;;;70.22;17.80;;;2.90;75.70;;;2.11;59.44;96163.38;5069687;28;20234;-82
2021/03/03 05:51:43;;;;;;;75.40;15.73;;;3.00;75.90;;;2.14;59.23;96167.56;5045047;28;20690;-82
2021/03/03 05:54:11;;;;;;;108.22;16.90;;;3.00;75.90;;;2.12;59.36;96159.88;5073596;28;20294;-83
2021/03/03 05:56:38;;;;;;;57.80;15.13;;;3.00;76.00;;;2.19;59.37;96160.28;5062855;28;20222;-82
2021/03/03 05:59:11;;;;;;;72.35;15.75;;;3.00;76.00;;;2.22;59.44;96165.22;5079719;28;20187;-82
2021/03/03 06:01:39;;;;;;;53.40;14.02;;;3.10;76.50;;;2.23;59.25;96170.31;5072630;28;20219;-82
2021/03/03 06:04:19;;;;;;;43.30;13.05;;;3.10;76.10;;;2.23;59.17;96172.91;5058062;28;20192;-82
2021/03/03 06:06:46;;;;;;;50.40;13.25;;;3.10;76.00;;;2.21;59.23;96169.59;5055689;28;20742;-83
2021/03/03 06:09:12;;;;;;;33.20;14.68;;;3.10;75.90;;;2.23;58.76;96172.06;5071910;28;20195;-81
2021/03/03 06:11:39;;;;;;;32.22;15.38;;;3.10;75.90;;;2.20;59.09;96180.06;5065989;28;20237;-82
2021/03/03 06:14:06;;;;;;;33.92;15.52;;;3.10;75.80;;;2.20;59.03;96173.09;5055659;28;20632;-83
2021/03/03 06:16:33;;;;;;;37.10;17.17;;;3.10;75.80;;;2.23;59.13;96175.50;5039225;28;20622;-83
2021/03/03 06:19:01;;;;;;;28.58;17.35;;;3.10;75.90;;;2.25;59.43;96172.78;5053766;28;20665;-82
2021/03/03 06:21:31;;;;;;;31.10;18.13;;;3.10;75.90;;;2.30;59.72;96177.66;5072997;28;20313;-82
2021/03/03 06:24:09;;;;;;;36.08;18.73;;;3.10;75.90;;;2.34;59.48;96172.13;5065998;28;20654;-81
2021/03/03 06:26:59;;;;;;;45.58;18.83;;;3.20;76.50;;;2.41;59.48;96169.94;5055378;28;20218;-82
2021/03/03 06:29:26;;;;;;;59.65;17.25;;;3.20;76.20;;;2.49;59.52;96177.13;5074424;28;20584;-83
2021/03/03 06:31:53;;;;;;;59.90;16.67;;;3.20;76.30;;;2.59;59.48;96177.28;5053149;28;20296;-81
2021/03/03 06:34:50;;;;;;;54.88;15.48;;;3.30;76.60;;;2.67;59.32;96174.97;5090043;28;20270;-80
2021/03/03 06:37:17;;;;;;;43.85;15.13;;;3.40;77.30;;;2.68;59.61;96164.50;5075293;28;20241;-83
2021/03/03 06:39:44;;;;;;;43.88;16.33;;;3.40;76.80;;;2.77;59.30;96168.22;5092180;28;20603;-81
2021/03/03 06:42:26;;;;;;;29.85;15.65;;;3.50;77.60;;;2.85;59.49;96181.41;5075328;28;20256;-82
2021/03/03 06:44:56;;;;;;;36.95;14.93;;;3.50;77.50;;;2.90;59.59;96182.84;5075281;28;20645;-81
2021/03/03 06:47:24;;;;;;;33.00;15.43;;;3.60;76.80;;;2.94;59.40;96179.09;5075360;28;20633;-81
2021/03/03 06:49:53;;;;;;;30.33;14.93;;;3.60;76.70;;;2.99;59.30;96182.16;5075133;28;20229;-83
2021/03/03 06:52:43;;;;;;;41.28;16.98;;;3.70;76.70;;;3.01;59.45;96178.50;5091991;28;20219;-83
2021/03/03 06:55:12;;;;;;;37.03;17.02;;;3.70;77.50;;;3.03;59.38;96181.00;5075478;28;20255;-83
2021/03/03 06:57:39;;;;;;;36.60;17.52;;;3.70;76.60;;;3.05;59.17;96179.13;5092296;28;20722;-83
2021/03/03 07:00:10;;;;;;;34.88;17.05;;;3.80;76.50;;;3.03;59.29;96178.41;5091915;28;20289;-81
2021/03/03 07:02:38;;;;;;;29.52;16.27;;;3.80;76.70;;;3.04;59.44;96177.50;5074764;28;20246;-82
2021/03/03 07:05:09;;;;;;;34.30;16.45;;;3.80;76.40;;;3.03;59.03;96179.22;5091169;28;20199;-82
2021/03/03 07:07:36;;;;;;;38.55;16.88;;;3.80;76.40;;;3.04;59.32;96180.88;5075042;28;20274;-83
2021/03/03 07:10:04;;;;;;;35.70;19.02;;;3.80;76.40;;;3.07;59.38;96184.22;5091800;28;20282;-81
2021/03/03 07:12:33;;;;;;;27.63;17.02;;;3.80;76.40;;;3.09;59.30;96177.97;5091454;28;20676;-81
2021/03/03 07:15:09;;;;;;;25.02;14.60;;;3.90;76.50;;;3.13;59.31;96176.78;5074257;28;20187;-82
2021/03/03 07:17:37;;;;;;;25.80;14.82;;;3.90;76.80;;;3.17;59.45;96179.97;5056623;28;20194;-82
2021/03/03 07:20:14;;;;;;;24.08;15.10;;;3.90;76.60;;;3.17;59.56;96170.44;5038077;28;20195;-82
2021/03/03 07:22:47;;;;;;;24.75;15.23;;;3.90;76.90;;;3.23;59.35;96171.75;5071380;28;20683;-82
2021/03/03 07:25:17;;;;;;;24.67;14.18;;;4.00;76.60;;;3.26;59.44;96161.16;5038399;28;20207;-82
2021/03/03 07:27:47;;;;;;;23.60;14.13;;;4.00;76.60;;;3.32;59.49;96168.47;5071546;28;20261;-82
2021/03/03 07:30:23;;;;;;;19.73;12.93;;;4.00;76.60;;;3.38;59.63;96168.94;5054732;28;20217;-83
2021/03/03 07:32:52;;;;;;;32.47;13.98;;;4.10;76.80;;;3.38;59.56;96155.97;5059787;28;20265;-83
2021/03/03 07:35:34;;;;;;;28.38;13.38;;;4.20;76.70;;;3.47;59.31;96161.28;5046306;28;20218;-82
2021/03/03 07:38:03;;;;;;;23.13;12.65;;;4.10;76.60;;;3.50;59.32;96158.47;5087963;28;20228;-83
2021/03/03 07:40:31;;;;;;;29.25;13.88;;;4.20;76.80;;;3.57;59.63;96158.00;5061208;28;20214;-82
2021/03/03 07:43:01;;;;;;;23.42;12.65;;;4.20;76.80;;;3.63;59.50;96165.31;5073755;28;20283;-82
2021/03/03 07:45:40;;;;;;;27.10;12.70;;;4.20;76.80;;;3.67;59.39;96158.94;5058603;28;20490;-82
2021/03/03 07:48:11;;;;;;;24.65;12.90;;;4.30;77.20;;;3.73;59.61;96158.47;5061407;28;20202;-82
2021/03/03 07:50:39;;;;;;;26.10;13.48;;;4.30;76.90;;;3.81;59.46;96166.47;5070418;28;20219;-82
2021/03/03 07:53:09;;;;;;;21.85;13.20;;;4.40;76.90;;;3.87;59.27;96167.78;5055934;28;20207;-83
2021/03/03 07:55:37;;;;;;;21.13;12.13;;;4.40;77.00;;;3.93;59.41;96163.88;5056257;28;20215;-82
2021/03/03 07:58:07;;;;;;;30.48;13.10;;;4.50;77.00;;;3.98;59.46;96165.19;5091555;28;20657;-82
2021/03/03 08:00:37;;;;;;;24.60;13.00;;;4.50;77.10;;;4.00;59.28;96162.44;5074551;28;20272;-82
2021/03/03 08:03:05;;;;;;;21.05;12.95;;;4.50;77.10;;;4.06;59.47;96159.38;5060600;28;20211;-82
2021/03/03 08:05:52;;;;;;;22.27;13.10;;;4.60;77.00;;;4.06;59.61;96151.59;5057852;28;20317;-82
2021/03/03 08:08:33;;;;;;;20.45;12.55;;;4.70;77.10;;;4.17;59.40;96153.34;5065429;28;20211;-82
2021/03/03 08:11:00;;;;;;;20.35;13.07;;;4.70;77.30;;;4.22;59.38;96153.78;5058796;28;20761;-82
2021/03/03 08:13:30;;;;;;;20.50;13.93;;;4.70;77.20;;;4.28;59.47;96155.09;5072059;28;20195;-83
2021/03/03 08:16:05;;;;;;;22.45;13.95;;;4.80;77.50;;;4.31;59.88;96147.06;5093782;28;20322;-82
2021/03/03 08:18:34;;;;;;;19.55;13.55;;;4.80;77.40;;;4.39;59.70;96149.84;5082978;28;20194;-84
2021/03/03 08:21:21;;;;;;;20.60;13.15;;;4.90;77.50;;;4.40;59.96;96133.31;5049043;28;20218;-82
2021/03/03 08:24:00;;;;;;;21.58;13.80;;;5.00;77.60;;;4.57;59.91;96147.56;5069408;28;20205;-82
2021/03/03 08:26:29;;;;;;;33.58;18.17;;;5.00;77.80;;;4.68;60.33;96136.31;5081930;28;20221;-83
2021/03/03 08:29:16;;;;;;;28.00;16.83;;;5.10;77.90;;;4.85;60.22;96144.50;5084328;28;20191;-83
2021/03/03 08:31:44;;;;;;;30.50;17.80;;;5.20;78.90;;;4.94;60.67;96136.78;5055308;28;20227;-83
2021/03/03 08:34:11;;;;;;;36.78;21.10;;;5.40;78.40;;;5.10;60.68;96133.72;5064869;28;20203;-82
2021/03/03 08:36:38;;;;;;;36.72;21.58;;;5.40;78.40;;;5.32;61.08;96128.50;5056407;28;20247;-83
2021/03/03 08:39:09;;;;;;;40.45;20.63;;;5.50;78.50;;;5.51;61.24;96130.38;5068575;28;20191;-83
2021/03/03 08:41:40;;;;;;;41.53;22.90;;;5.70;78.90;;;5.66;61.31;96129.06;5076088;28;20227;-83
2021/03/03 08:44:17;;;;;;;42.65;23.83;;;5.80;79.10;;;5.86;61.56;96126.53;5066465;28;20396;-82
2021/03/03 08:46:48;;;;;;;45.70;24.23;;;6.00;79.40;;;6.00;61.59;96136.63;5057517;28;20229;-82
2021/03/03 08:49:15;;;;;;;42.60;24.63;;;6.10;79.30;;;6.18;61.83;96136.00;5075063;28;20228;-82
2021/03/03 08:51:42;;;;;;;53.92;28.45;;;6.30;79.30;;;6.30;63.26;96136.69;5082959;28;20576;-83
2021/03/03 08:54:13;;;;;;;48.55;26.02;;;6.40;79.50;;;6.42;62.19;96130.41;5054219;28;20192;-83
2021/03/03 08:56:54;;;;;;;46.92;25.42;;;6.60;79.40;;;6.55;62.25;96132.75;5074757;28;20219;-82
2021/03/03 08:59:35;;;;;;;47.13;25.67;;;6.70;80.40;;;6.64;62.44;96136.31;5083105;28;20197;-82
2021/03/03 09:02:07;;;;;;;47.70;27.50;;;6.80;79.60;;;6.72;63.07;96126.81;5084384;28;20284;-82
2021/03/03 09:04:55;;;;;;;45.03;25.80;;;7.00;79.70;;;6.83;62.79;96123.25;5053051;28;20248;-81
2021/03/03 09:07:31;;;;;;;43.83;26.33;;;7.10;79.80;;;6.95;62.51;96128.34;5069479;28;20641;-82
2021/03/03 09:10:16;;;;;;;44.15;24.67;;;7.20;79.70;;;7.02;62.93;96122.44;5059585;28;20194;-81
2021/03/03 09:12:45;;;;;;;40.90;24.20;;;7.30;79.80;;;7.16;62.94;96126.38;5065749;28;20187;-83
2021/03/03 09:15:15;;;;;;;49.65;27.63;;;7.40;79.80;;;7.22;63.28;96117.16;5082994;28;20191;-82
2021/03/03 09:17:44;;;;;;;48.20;26.85;;;7.50;80.00;;;7.33;63.13;96113.56;5083535;28;20191;-81
2021/03/03 09:20:16;;;;;;;42.65;24.20;;;7.60;79.90;;;7.45;63.02;96117.66;5080784;28;20248;-81
2021/03/03 09:22:46;;;;;;;47.00;25.95;;;7.70;79.90;;;7.55;62.76;96106.38;5064283;28;20210;-81
2021/03/03 09:25:17;;;;;;;41.58;23.15;;;7.80;79.80;;;7.72;62.53;96116.06;5066814;28;20237;-81
2021/03/03 09:27:57;;;;;;;40.47;23.15;;;7.90;79.80;;;7.79;62.63;96124.16;5071423;28;20194;-82
2021/03/03 09:30:28;;;;;;;44.63;24.30;;;8.10;79.60;;;7.90;62.26;96117.88;5067556;28;20223;-83
2021/03/03 09:32:55;;;;;;;41.15;22.98;;;8.20;79.50;;;7.93;61.84;96112.38;5065111;28;20192;-81
2021/03/03 09:35:30;;;;;;;41.80;24.15;;;8.30;79.40;;;8.04;61.75;96125.25;5052949;28;21646;-83
2021/03/03 09:37:59;;;;;;;37.15;22.23;;;8.40;79.10;;;8.10;62.08;96122.03;5054952;28;20772;-83
2021/03/03 09:40:34;;;;;;;44.33;24.13;;;8.40;79.20;;;8.15;61.68;96114.59;5059078;28;20226;-82
2021/03/03 09:43:02;;;;;;;36.95;21.90;;;8.50;78.90;;;8.27;61.86;96109.97;5076431;28;20233;-83
2021/03/03 09:45:30;;;;;;;41.58;24.45;;;8.50;79.00;;;8.35;61.41;96101.41;5076418;28;20254;-82
2021/03/03 09:47:57;;;;;;;43.85;24.38;;;8.60;78.80;;;8.39;60.77;96110.59;5059689;28;20288;-82
2021/03/03 09:50:29;;;;;;;37.58;22.63;;;8.70;78.50;;;8.53;59.78;96106.66;5075319;28;20693;-82
2021/03/03 09:52:59;;;;;;;38.17;23.48;;;8.80;78.10;;;8.65;59.56;96109.88;5073938;28;20620;-81
2021/03/03 09:55:33;;;;;;;40.28;23.25;;;8.90;77.90;;;8.77;59.10;96113.09;5070486;28;20242;-81
2021/03/03 09:58:01;;;;;;;41.42;23.10;;;9.00;77.60;;;8.85;58.27;96110.56;5072150;28;20197;-81
2021/03/03 10:00:34;;;;;;;40.05;23.55;;;9.10;77.30;;;8.98;58.29;96107.53;5088776;28;20707;-81
2021/03/03 10:03:05;;;;;;;40.75;22.52;;;9.20;77.10;;;9.11;57.99;96097.47;5056902;28;20753;-81
2021/03/03 10:05:34;;;;;;;35.72;21.92;;;9.30;77.10;;;9.23;57.50;96103.28;5056257;28;20218;-81
2021/03/03 10:08:06;;;;;;;39.95;23.67;;;9.40;76.80;;;9.36;57.47;96086.34;5091991;28;20256;-82
2021/03/03 10:10:39;;;;;;;38.50;22.17;;;9.50;76.70;;;9.50;57.36;96092.81;5058071;28;20279;-81
2021/03/03 10:13:18;;;;;;;43.45;24.02;;;9.70;76.70;;;9.60;56.09;96090.91;5058211;28;20187;-81
2021/03/03 10:15:45;;;;;;;38.08;21.45;;;9.80;76.00;;;9.70;55.92;96096.81;5058677;28;20218;-82
2021/03/03 10:18:13;;;;;;;36.83;21.88;;;9.80;75.60;;;9.77;55.42;96083.94;5059347;28;20240;-82
2021/03/03 10:20:56;;;;;;;38.60;21.48;;;10.00;74.60;;;9.87;55.42;96083.81;5075428;28;20226;-82
2021/03/03 10:23:28;;;;;;;34.03;19.25;;;10.00;74.20;;;9.96;56.11;96085.50;5075567;28;20236;-84
2021/03/03 10:26:08;;;;;;;35.58;21.27;;;10.10;74.60;;;9.97;55.00;96079.25;5075572;28;20253;-82
2021/03/03 10:28:38;;;;;;;31.83;19.23;;;10.20;74.10;;;10.10;55.65;96081.44;5092433;28;20190;-82
2021/03/03 10:31:08;;;;;;;33.28;20.13;;;10.30;74.00;;;10.21;54.35;96083.75;5092057;28;20248;-84